sensor_id;sensor_type;location;lat;lon;timestamp;P1;durP1;ratioP1;P2;durP2;ratioP2
2558;SDS011;1289;53.488;10.006;2024-01-30T00:01:51;15.07;;;12.00;;
2558;SDS011;1289;53.488;10.006;2024-01-30T00:04:17;12.07;;;10.87;;
2558;SDS011;1289;53.488;10.006;2024-01-30T00:06:44;12.63;;;11.33;;
2558;SDS011;1289;53.488;10.006;2024-01-30T00:09:12;12.50;;;11.27;;
2558;SDS011;1289;53.488;10.006;2024-01-30T00:11:39;14.47;;;13.10;;
2558;SDS011;1289;53.488;10.006;2024-01-30T00:14:06;14.50;;;12.60;;
2558;SDS011;1289;53.488;10.006;2024-01-30T00:16:32;12.90;;;11.60;;
2558;SDS011;1289;53.488;10.006;2024-01-30T00:18:59;12.63;;;11.50;;
2558;SDS011;1289;53.488;10.006;2024-01-30T00:21:27;13.53;;;11.93;;
2558;SDS011;1289;53.488;10.006;2024-01-30T00:23:53;12.30;;;11.00;;
2558;SDS011;1289;53.488;10.006;2024-01-30T00:26:21;15.13;;;11.50;;
2558;SDS011;1289;53.488;10.006;2024-01-30T00:28:48;14.50;;;12.37;;
2558;SDS011;1289;53.488;10.006;2024-01-30T00:31:15;13.40;;;11.70;;
2558;SDS011;1289;53.488;10.006;2024-01-30T00:33:41;13.63;;;12.10;;
2558;SDS011;1289;53.488;10.006;2024-01-30T00:36:08;13.40;;;12.10;;
2558;SDS011;1289;53.488;10.006;2024-01-30T00:38:35;12.37;;;11.10;;
2558;SDS011;1289;53.488;10.006;2024-01-30T00:41:02;13.70;;;12.17;;
2558;SDS011;1289;53.488;10.006;2024-01-30T00:43:31;16.43;;;12.60;;
2558;SDS011;1289;53.488;10.006;2024-01-30T00:45:57;13.70;;;11.40;;
2558;SDS011;1289;53.488;10.006;2024-01-30T00:48:25;13.23;;;11.83;;
2558;SDS011;1289;53.488;10.006;2024-01-30T00:50:52;14.63;;;12.27;;
2558;SDS011;1289;53.488;10.006;2024-01-30T00:53:19;14.50;;;12.30;;
2558;SDS011;1289;53.488;10.006;2024-01-30T00:55:45;13.17;;;11.70;;
2558;SDS011;1289;53.488;10.006;2024-01-30T00:58:12;13.67;;;11.20;;
2558;SDS011;1289;53.488;10.006;2024-01-30T01:00:40;11.97;;;10.73;;
2558;SDS011;1289;53.488;10.006;2024-01-30T01:03:07;12.73;;;11.63;;
2558;SDS011;1289;53.488;10.006;2024-01-30T01:05:34;13.30;;;11.60;;
2558;SDS011;1289;53.488;10.006;2024-01-30T01:08:00;13.50;;;12.10;;
2558;SDS011;1289;53.488;10.006;2024-01-30T01:10:27;13.67;;;12.07;;
2558;SDS011;1289;53.488;10.006;2024-01-30T01:12:54;12.60;;;11.33;;
2558;SDS011;1289;53.488;10.006;2024-01-30T01:15:20;13.00;;;11.70;;
2558;SDS011;1289;53.488;10.006;2024-01-30T01:17:48;13.30;;;11.80;;
2558;SDS011;1289;53.488;10.006;2024-01-30T01:20:15;12.17;;;11.07;;
2558;SDS011;1289;53.488;10.006;2024-01-30T01:22:41;12.50;;;11.20;;
2558;SDS011;1289;53.488;10.006;2024-01-30T01:25:08;13.30;;;12.00;;
2558;SDS011;1289;53.488;10.006;2024-01-30T01:27:35;13.40;;;12.13;;
2558;SDS011;1289;53.488;10.006;2024-01-30T01:30:06;14.43;;;11.00;;
2558;SDS011;1289;53.488;10.006;2024-01-30T01:32:35;12.50;;;11.20;;
2558;SDS011;1289;53.488;10.006;2024-01-30T01:35:05;12.57;;;11.43;;
2558;SDS011;1289;53.488;10.006;2024-01-30T01:37:31;13.70;;;11.53;;
2558;SDS011;1289;53.488;10.006;2024-01-30T01:39:58;12.13;;;11.00;;
2558;SDS011;1289;53.488;10.006;2024-01-30T01:42:25;12.67;;;11.47;;
2558;SDS011;1289;53.488;10.006;2024-01-30T01:44:51;13.20;;;11.90;;
2558;SDS011;1289;53.488;10.006;2024-01-30T01:47:18;12.27;;;11.03;;
2558;SDS011;1289;53.488;10.006;2024-01-30T01:49:45;12.83;;;11.60;;
2558;SDS011;1289;53.488;10.006;2024-01-30T01:52:13;13.47;;;12.10;;
2558;SDS011;1289;53.488;10.006;2024-01-30T01:54:39;12.83;;;11.63;;
2558;SDS011;1289;53.488;10.006;2024-01-30T01:57:06;11.50;;;10.40;;
2558;SDS011;1289;53.488;10.006;2024-01-30T01:59:33;11.43;;;10.33;;
2558;SDS011;1289;53.488;10.006;2024-01-30T02:01:59;12.27;;;11.10;;
2558;SDS011;1289;53.488;10.006;2024-01-30T02:04:28;13.60;;;11.60;;
2558;SDS011;1289;53.488;10.006;2024-01-30T02:06:55;14.13;;;12.63;;
2558;SDS011;1289;53.488;10.006;2024-01-30T02:09:23;12.43;;;11.20;;
2558;SDS011;1289;53.488;10.006;2024-01-30T02:11:50;12.87;;;11.43;;
2558;SDS011;1289;53.488;10.006;2024-01-30T02:14:16;12.50;;;11.20;;
2558;SDS011;1289;53.488;10.006;2024-01-30T02:16:43;12.10;;;10.83;;
2558;SDS011;1289;53.488;10.006;2024-01-30T02:19:10;13.10;;;11.80;;
2558;SDS011;1289;53.488;10.006;2024-01-30T02:21:38;12.60;;;10.70;;
2558;SDS011;1289;53.488;10.006;2024-01-30T02:24:05;12.20;;;11.00;;
2558;SDS011;1289;53.488;10.006;2024-01-30T02:26:32;11.30;;;10.30;;
2558;SDS011;1289;53.488;10.006;2024-01-30T02:28:58;12.03;;;10.90;;
2558;SDS011;1289;53.488;10.006;2024-01-30T02:31:25;12.90;;;11.60;;
2558;SDS011;1289;53.488;10.006;2024-01-30T02:33:52;12.83;;;11.47;;
2558;SDS011;1289;53.488;10.006;2024-01-30T02:36:18;13.07;;;11.80;;
2558;SDS011;1289;53.488;10.006;2024-01-30T02:38:46;11.97;;;10.37;;
2558;SDS011;1289;53.488;10.006;2024-01-30T02:41:13;11.07;;;9.97;;
2558;SDS011;1289;53.488;10.006;2024-01-30T02:43:39;12.27;;;11.07;;
2558;SDS011;1289;53.488;10.006;2024-01-30T02:46:06;11.70;;;10.50;;
2558;SDS011;1289;53.488;10.006;2024-01-30T02:48:33;11.23;;;10.17;;
2558;SDS011;1289;53.488;10.006;2024-01-30T02:50:59;12.40;;;11.10;;
2558;SDS011;1289;53.488;10.006;2024-01-30T02:53:26;13.13;;;11.83;;
2558;SDS011;1289;53.488;10.006;2024-01-30T02:55:54;13.20;;;11.80;;
2558;SDS011;1289;53.488;10.006;2024-01-30T02:58:20;11.77;;;10.60;;
2558;SDS011;1289;53.488;10.006;2024-01-30T03:00:47;11.53;;;10.50;;
2558;SDS011;1289;53.488;10.006;2024-01-30T03:03:14;11.80;;;10.70;;
2558;SDS011;1289;53.488;10.006;2024-01-30T03:05:41;11.70;;;10.60;;
2558;SDS011;1289;53.488;10.006;2024-01-30T03:08:07;15.30;;;12.20;;
2558;SDS011;1289;53.488;10.006;2024-01-30T03:10:34;10.90;;;9.87;;
2558;SDS011;1289;53.488;10.006;2024-01-30T03:13:02;12.47;;;11.07;;
2558;SDS011;1289;53.488;10.006;2024-01-30T03:15:29;11.10;;;10.10;;
2558;SDS011;1289;53.488;10.006;2024-01-30T03:17:56;11.70;;;10.50;;
2558;SDS011;1289;53.488;10.006;2024-01-30T03:20:22;12.43;;;11.20;;
2558;SDS011;1289;53.488;10.006;2024-01-30T03:22:50;11.27;;;10.20;;
2558;SDS011;1289;53.488;10.006;2024-01-30T03:25:16;12.30;;;11.00;;
2558;SDS011;1289;53.488;10.006;2024-01-30T03:27:43;12.10;;;10.97;;
2558;SDS011;1289;53.488;10.006;2024-01-30T03:30:11;11.40;;;10.33;;
2558;SDS011;1289;53.488;10.006;2024-01-30T03:32:38;11.73;;;10.63;;
2558;SDS011;1289;53.488;10.006;2024-01-30T03:35:05;17.50;;;11.90;;
2558;SDS011;1289;53.488;10.006;2024-01-30T03:37:32;12.93;;;11.40;;
2558;SDS011;1289;53.488;10.006;2024-01-30T03:39:58;11.57;;;10.33;;
2558;SDS011;1289;53.488;10.006;2024-01-30T03:42:25;12.63;;;11.33;;
2558;SDS011;1289;53.488;10.006;2024-01-30T03:44:51;12.47;;;11.37;;
2558;SDS011;1289;53.488;10.006;2024-01-30T03:47:21;13.60;;;12.17;;
2558;SDS011;1289;53.488;10.006;2024-01-30T03:49:48;12.80;;;11.20;;
2558;SDS011;1289;53.488;10.006;2024-01-30T03:52:14;13.70;;;12.47;;
2558;SDS011;1289;53.488;10.006;2024-01-30T03:54:41;13.07;;;11.73;;
2558;SDS011;1289;53.488;10.006;2024-01-30T03:57:07;12.53;;;11.20;;
2558;SDS011;1289;53.488;10.006;2024-01-30T03:59:34;12.90;;;11.73;;
2558;SDS011;1289;53.488;10.006;2024-01-30T04:02:01;12.97;;;11.67;;
2558;SDS011;1289;53.488;10.006;2024-01-30T04:04:29;15.13;;;11.87;;
2558;SDS011;1289;53.488;10.006;2024-01-30T04:06:55;12.83;;;11.53;;
2558;SDS011;1289;53.488;10.006;2024-01-30T04:09:22;14.33;;;12.67;;
2558;SDS011;1289;53.488;10.006;2024-01-30T04:11:49;14.10;;;12.50;;
2558;SDS011;1289;53.488;10.006;2024-01-30T04:14:15;14.30;;;12.50;;
2558;SDS011;1289;53.488;10.006;2024-01-30T04:16:42;14.03;;;12.33;;
2558;SDS011;1289;53.488;10.006;2024-01-30T04:19:08;14.13;;;12.70;;
2558;SDS011;1289;53.488;10.006;2024-01-30T04:21:37;13.10;;;11.80;;
2558;SDS011;1289;53.488;10.006;2024-01-30T04:24:03;13.17;;;11.90;;
2558;SDS011;1289;53.488;10.006;2024-01-30T04:26:31;12.97;;;11.67;;
2558;SDS011;1289;53.488;10.006;2024-01-30T04:28:57;12.07;;;10.87;;
2558;SDS011;1289;53.488;10.006;2024-01-30T04:31:24;13.47;;;12.17;;
2558;SDS011;1289;53.488;10.006;2024-01-30T04:33:50;13.90;;;12.50;;
2558;SDS011;1289;53.488;10.006;2024-01-30T04:36:17;12.80;;;11.50;;
2558;SDS011;1289;53.488;10.006;2024-01-30T04:38:45;12.63;;;11.33;;
2558;SDS011;1289;53.488;10.006;2024-01-30T04:41:12;14.40;;;11.87;;
2558;SDS011;1289;53.488;10.006;2024-01-30T04:43:38;13.40;;;12.10;;
2558;SDS011;1289;53.488;10.006;2024-01-30T04:46:05;12.67;;;11.47;;
2558;SDS011;1289;53.488;10.006;2024-01-30T04:48:32;14.07;;;12.63;;
2558;SDS011;1289;53.488;10.006;2024-01-30T04:50:58;13.57;;;12.17;;
2558;SDS011;1289;53.488;10.006;2024-01-30T04:53:28;14.93;;;11.60;;
2558;SDS011;1289;53.488;10.006;2024-01-30T04:55:57;13.10;;;11.80;;
2558;SDS011;1289;53.488;10.006;2024-01-30T04:58:23;12.43;;;11.23;;
2558;SDS011;1289;53.488;10.006;2024-01-30T05:00:50;14.20;;;12.70;;
2558;SDS011;1289;53.488;10.006;2024-01-30T05:03:17;12.73;;;11.43;;
2558;SDS011;1289;53.488;10.006;2024-01-30T05:05:43;14.90;;;12.17;;
2558;SDS011;1289;53.488;10.006;2024-01-30T05:08:10;14.30;;;12.90;;
2558;SDS011;1289;53.488;10.006;2024-01-30T05:10:37;19.20;;;12.67;;
2558;SDS011;1289;53.488;10.006;2024-01-30T05:13:05;21.90;;;12.20;;
2558;SDS011;1289;53.488;10.006;2024-01-30T05:15:31;14.73;;;12.83;;
2558;SDS011;1289;53.488;10.006;2024-01-30T05:17:58;16.00;;;12.10;;
2558;SDS011;1289;53.488;10.006;2024-01-30T05:20:24;16.10;;;13.20;;
2558;SDS011;1289;53.488;10.006;2024-01-30T05:22:53;14.43;;;12.87;;
2558;SDS011;1289;53.488;10.006;2024-01-30T05:25:19;16.63;;;12.60;;
2558;SDS011;1289;53.488;10.006;2024-01-30T05:27:46;16.07;;;14.40;;
2558;SDS011;1289;53.488;10.006;2024-01-30T05:30:14;16.00;;;13.97;;
2558;SDS011;1289;53.488;10.006;2024-01-30T05:32:41;12.73;;;11.43;;
2558;SDS011;1289;53.488;10.006;2024-01-30T05:35:07;14.43;;;13.03;;
2558;SDS011;1289;53.488;10.006;2024-01-30T05:37:34;14.67;;;13.23;;
2558;SDS011;1289;53.488;10.006;2024-01-30T05:40:00;16.67;;;14.57;;
2558;SDS011;1289;53.488;10.006;2024-01-30T05:42:28;15.33;;;13.80;;
2558;SDS011;1289;53.488;10.006;2024-01-30T05:44:54;13.67;;;12.27;;
2558;SDS011;1289;53.488;10.006;2024-01-30T05:47:22;14.63;;;13.13;;
2558;SDS011;1289;53.488;10.006;2024-01-30T05:49:49;15.13;;;13.57;;
2558;SDS011;1289;53.488;10.006;2024-01-30T05:52:16;15.63;;;13.93;;
2558;SDS011;1289;53.488;10.006;2024-01-30T05:54:43;15.97;;;13.97;;
2558;SDS011;1289;53.488;10.006;2024-01-30T05:57:10;15.90;;;14.30;;
2558;SDS011;1289;53.488;10.006;2024-01-30T05:59:37;16.07;;;13.73;;
2558;SDS011;1289;53.488;10.006;2024-01-30T06:02:04;16.50;;;14.50;;
2558;SDS011;1289;53.488;10.006;2024-01-30T06:04:32;16.23;;;13.90;;
2558;SDS011;1289;53.488;10.006;2024-01-30T06:06:58;17.10;;;14.30;;
2558;SDS011;1289;53.488;10.006;2024-01-30T06:09:27;16.33;;;14.67;;
2558;SDS011;1289;53.488;10.006;2024-01-30T06:11:53;17.03;;;13.53;;
2558;SDS011;1289;53.488;10.006;2024-01-30T06:14:20;19.23;;;14.40;;
2558;SDS011;1289;53.488;10.006;2024-01-30T06:16:46;17.40;;;15.07;;
2558;SDS011;1289;53.488;10.006;2024-01-30T06:19:13;19.57;;;15.57;;
2558;SDS011;1289;53.488;10.006;2024-01-30T06:21:41;18.27;;;15.77;;
2558;SDS011;1289;53.488;10.006;2024-01-30T06:24:08;18.37;;;16.47;;
2558;SDS011;1289;53.488;10.006;2024-01-30T06:26:34;24.33;;;16.30;;
2558;SDS011;1289;53.488;10.006;2024-01-30T06:29:01;19.00;;;16.97;;
2558;SDS011;1289;53.488;10.006;2024-01-30T06:31:27;17.47;;;15.63;;
2558;SDS011;1289;53.488;10.006;2024-01-30T06:33:54;17.10;;;15.40;;
2558;SDS011;1289;53.488;10.006;2024-01-30T06:36:20;18.90;;;16.87;;
2558;SDS011;1289;53.488;10.006;2024-01-30T06:38:48;22.00;;;16.37;;
2558;SDS011;1289;53.488;10.006;2024-01-30T06:41:15;22.00;;;15.87;;
2558;SDS011;1289;53.488;10.006;2024-01-30T06:43:42;19.00;;;15.90;;
2558;SDS011;1289;53.488;10.006;2024-01-30T06:46:10;18.93;;;16.90;;
2558;SDS011;1289;53.488;10.006;2024-01-30T06:48:36;19.97;;;15.83;;
2558;SDS011;1289;53.488;10.006;2024-01-30T06:51:05;19.90;;;17.07;;
2558;SDS011;1289;53.488;10.006;2024-01-30T06:53:32;18.90;;;16.27;;
2558;SDS011;1289;53.488;10.006;2024-01-30T06:56:00;17.83;;;15.20;;
2558;SDS011;1289;53.488;10.006;2024-01-30T06:58:26;19.63;;;17.40;;
2558;SDS011;1289;53.488;10.006;2024-01-30T07:00:54;18.97;;;16.90;;
2558;SDS011;1289;53.488;10.006;2024-01-30T07:03:20;19.00;;;16.10;;
2558;SDS011;1289;53.488;10.006;2024-01-30T07:05:47;18.70;;;16.77;;
2558;SDS011;1289;53.488;10.006;2024-01-30T07:08:14;18.77;;;15.80;;
2558;SDS011;1289;53.488;10.006;2024-01-30T07:10:42;19.07;;;15.90;;
2558;SDS011;1289;53.488;10.006;2024-01-30T07:13:10;20.07;;;14.90;;
2558;SDS011;1289;53.488;10.006;2024-01-30T07:15:37;20.20;;;15.07;;
2558;SDS011;1289;53.488;10.006;2024-01-30T07:18:04;17.70;;;15.03;;
2558;SDS011;1289;53.488;10.006;2024-01-30T07:20:31;18.20;;;15.70;;
2558;SDS011;1289;53.488;10.006;2024-01-30T07:22:58;19.83;;;14.97;;
2558;SDS011;1289;53.488;10.006;2024-01-30T07:25:25;17.80;;;15.40;;
2558;SDS011;1289;53.488;10.006;2024-01-30T07:27:51;19.33;;;16.00;;
2558;SDS011;1289;53.488;10.006;2024-01-30T07:30:20;17.43;;;15.57;;
2558;SDS011;1289;53.488;10.006;2024-01-30T07:32:46;18.00;;;14.73;;
2558;SDS011;1289;53.488;10.006;2024-01-30T07:35:13;21.07;;;17.07;;
2558;SDS011;1289;53.488;10.006;2024-01-30T07:37:40;20.07;;;16.70;;
2558;SDS011;1289;53.488;10.006;2024-01-30T07:40:07;21.53;;;15.60;;
2558;SDS011;1289;53.488;10.006;2024-01-30T07:42:34;18.03;;;16.10;;
2558;SDS011;1289;53.488;10.006;2024-01-30T07:45:00;24.50;;;18.53;;
2558;SDS011;1289;53.488;10.006;2024-01-30T07:47:28;23.77;;;17.97;;
2558;SDS011;1289;53.488;10.006;2024-01-30T07:49:55;20.47;;;18.37;;
2558;SDS011;1289;53.488;10.006;2024-01-30T07:52:22;22.90;;;17.60;;
2558;SDS011;1289;53.488;10.006;2024-01-30T07:54:48;22.40;;;18.53;;
2558;SDS011;1289;53.488;10.006;2024-01-30T07:57:15;21.43;;;18.30;;
2558;SDS011;1289;53.488;10.006;2024-01-30T07:59:42;20.77;;;18.57;;
2558;SDS011;1289;53.488;10.006;2024-01-30T08:02:09;22.83;;;18.87;;
2558;SDS011;1289;53.488;10.006;2024-01-30T08:04:37;24.60;;;17.90;;
2558;SDS011;1289;53.488;10.006;2024-01-30T08:07:03;20.83;;;18.03;;
2558;SDS011;1289;53.488;10.006;2024-01-30T08:09:30;22.63;;;19.00;;
2558;SDS011;1289;53.488;10.006;2024-01-30T08:11:56;22.50;;;18.20;;
2558;SDS011;1289;53.488;10.006;2024-01-30T08:14:23;24.20;;;19.27;;
2558;SDS011;1289;53.488;10.006;2024-01-30T08:16:51;22.13;;;18.00;;
2558;SDS011;1289;53.488;10.006;2024-01-30T08:19:18;28.43;;;20.93;;
2558;SDS011;1289;53.488;10.006;2024-01-30T08:21:46;25.20;;;20.67;;
2558;SDS011;1289;53.488;10.006;2024-01-30T08:24:14;27.20;;;20.20;;
2558;SDS011;1289;53.488;10.006;2024-01-30T08:26:41;29.20;;;21.43;;
2558;SDS011;1289;53.488;10.006;2024-01-30T08:29:07;23.23;;;19.37;;
2558;SDS011;1289;53.488;10.006;2024-01-30T08:31:34;24.17;;;18.43;;
2558;SDS011;1289;53.488;10.006;2024-01-30T08:34:01;23.93;;;19.67;;
2558;SDS011;1289;53.488;10.006;2024-01-30T08:36:28;22.57;;;19.93;;
2558;SDS011;1289;53.488;10.006;2024-01-30T08:38:55;29.20;;;22.50;;
2558;SDS011;1289;53.488;10.006;2024-01-30T08:41:22;23.13;;;19.73;;
2558;SDS011;1289;53.488;10.006;2024-01-30T08:43:49;22.40;;;20.07;;
2558;SDS011;1289;53.488;10.006;2024-01-30T08:46:17;24.80;;;18.70;;
2558;SDS011;1289;53.488;10.006;2024-01-30T08:48:44;20.30;;;17.47;;
2558;SDS011;1289;53.488;10.006;2024-01-30T08:51:11;23.37;;;18.33;;
2558;SDS011;1289;53.488;10.006;2024-01-30T08:53:37;23.80;;;19.40;;
2558;SDS011;1289;53.488;10.006;2024-01-30T08:56:07;19.43;;;17.40;;
2558;SDS011;1289;53.488;10.006;2024-01-30T08:58:34;20.13;;;17.60;;
2558;SDS011;1289;53.488;10.006;2024-01-30T09:01:00;19.33;;;17.20;;
2558;SDS011;1289;53.488;10.006;2024-01-30T09:03:28;19.30;;;15.87;;
2558;SDS011;1289;53.488;10.006;2024-01-30T09:05:55;20.60;;;16.87;;
2558;SDS011;1289;53.488;10.006;2024-01-30T09:08:22;24.50;;;15.77;;
2558;SDS011;1289;53.488;10.006;2024-01-30T09:10:48;20.93;;;16.70;;
2558;SDS011;1289;53.488;10.006;2024-01-30T09:13:17;19.73;;;16.80;;
2558;SDS011;1289;53.488;10.006;2024-01-30T09:15:43;19.57;;;16.80;;
2558;SDS011;1289;53.488;10.006;2024-01-30T09:18:10;19.80;;;17.20;;
2558;SDS011;1289;53.488;10.006;2024-01-30T09:20:37;18.77;;;16.87;;
2558;SDS011;1289;53.488;10.006;2024-01-30T09:23:03;18.77;;;16.73;;
2558;SDS011;1289;53.488;10.006;2024-01-30T09:25:30;20.17;;;18.07;;
2558;SDS011;1289;53.488;10.006;2024-01-30T09:27:57;20.57;;;18.10;;
2558;SDS011;1289;53.488;10.006;2024-01-30T09:30:25;20.47;;;16.77;;
2558;SDS011;1289;53.488;10.006;2024-01-30T09:32:51;22.57;;;17.10;;
2558;SDS011;1289;53.488;10.006;2024-01-30T09:35:18;23.73;;;18.47;;
2558;SDS011;1289;53.488;10.006;2024-01-30T09:37:45;19.70;;;16.57;;
2558;SDS011;1289;53.488;10.006;2024-01-30T09:40:11;18.20;;;16.40;;
2558;SDS011;1289;53.488;10.006;2024-01-30T09:42:38;20.47;;;18.10;;
2558;SDS011;1289;53.488;10.006;2024-01-30T09:45:07;20.47;;;17.57;;
2558;SDS011;1289;53.488;10.006;2024-01-30T09:47:37;22.43;;;18.10;;
2558;SDS011;1289;53.488;10.006;2024-01-30T09:50:08;19.00;;;17.00;;
2558;SDS011;1289;53.488;10.006;2024-01-30T09:52:35;18.60;;;16.70;;
2558;SDS011;1289;53.488;10.006;2024-01-30T09:55:03;18.50;;;15.93;;
2558;SDS011;1289;53.488;10.006;2024-01-30T09:57:30;20.23;;;16.60;;
2558;SDS011;1289;53.488;10.006;2024-01-30T09:59:57;19.23;;;17.27;;
2558;SDS011;1289;53.488;10.006;2024-01-30T10:02:23;17.97;;;15.83;;
2558;SDS011;1289;53.488;10.006;2024-01-30T10:04:51;16.97;;;15.17;;
2558;SDS011;1289;53.488;10.006;2024-01-30T10:07:18;19.00;;;16.17;;
2558;SDS011;1289;53.488;10.006;2024-01-30T10:09:46;17.30;;;14.70;;
2558;SDS011;1289;53.488;10.006;2024-01-30T10:12:14;16.70;;;15.00;;
2558;SDS011;1289;53.488;10.006;2024-01-30T10:14:41;17.73;;;15.03;;
2558;SDS011;1289;53.488;10.006;2024-01-30T10:17:13;17.67;;;15.93;;
2558;SDS011;1289;53.488;10.006;2024-01-30T10:19:40;17.03;;;15.37;;
2558;SDS011;1289;53.488;10.006;2024-01-30T10:22:09;19.47;;;16.47;;
2558;SDS011;1289;53.488;10.006;2024-01-30T10:24:36;18.10;;;15.70;;
2558;SDS011;1289;53.488;10.006;2024-01-30T10:27:03;16.80;;;14.60;;
2558;SDS011;1289;53.488;10.006;2024-01-30T10:29:31;18.27;;;15.40;;
2558;SDS011;1289;53.488;10.006;2024-01-30T10:31:58;16.90;;;14.50;;
2558;SDS011;1289;53.488;10.006;2024-01-30T10:34:26;16.33;;;14.63;;
2558;SDS011;1289;53.488;10.006;2024-01-30T10:36:57;18.57;;;15.67;;
2558;SDS011;1289;53.488;10.006;2024-01-30T10:39:28;19.30;;;16.30;;
2558;SDS011;1289;53.488;10.006;2024-01-30T10:41:55;18.60;;;15.60;;
2558;SDS011;1289;53.488;10.006;2024-01-30T10:44:22;17.60;;;15.47;;
2558;SDS011;1289;53.488;10.006;2024-01-30T10:46:50;19.00;;;16.00;;
2558;SDS011;1289;53.488;10.006;2024-01-30T10:49:20;16.40;;;14.77;;
2558;SDS011;1289;53.488;10.006;2024-01-30T10:51:47;15.90;;;14.30;;
2558;SDS011;1289;53.488;10.006;2024-01-30T10:54:15;22.63;;;15.43;;
2558;SDS011;1289;53.488;10.006;2024-01-30T10:56:43;19.67;;;16.70;;
2558;SDS011;1289;53.488;10.006;2024-01-30T10:59:10;18.30;;;15.10;;
2558;SDS011;1289;53.488;10.006;2024-01-30T11:01:38;17.70;;;15.43;;
2558;SDS011;1289;53.488;10.006;2024-01-30T11:04:05;18.20;;;16.30;;
2558;SDS011;1289;53.488;10.006;2024-01-30T11:06:32;16.67;;;14.97;;
2558;SDS011;1289;53.488;10.006;2024-01-30T11:09:10;19.80;;;16.60;;
2558;SDS011;1289;53.488;10.006;2024-01-30T11:11:49;17.40;;;15.23;;
2558;SDS011;1289;53.488;10.006;2024-01-30T11:14:16;18.57;;;16.40;;
2558;SDS011;1289;53.488;10.006;2024-01-30T11:16:43;16.63;;;14.40;;
2558;SDS011;1289;53.488;10.006;2024-01-30T11:19:10;17.70;;;15.53;;
2558;SDS011;1289;53.488;10.006;2024-01-30T11:21:40;15.77;;;14.17;;
2558;SDS011;1289;53.488;10.006;2024-01-30T11:24:08;16.30;;;14.57;;
2558;SDS011;1289;53.488;10.006;2024-01-30T11:26:34;19.37;;;15.73;;
2558;SDS011;1289;53.488;10.006;2024-01-30T11:29:07;21.77;;;15.00;;
2558;SDS011;1289;53.488;10.006;2024-01-30T11:31:34;20.23;;;15.70;;
2558;SDS011;1289;53.488;10.006;2024-01-30T11:34:01;18.30;;;16.27;;
2558;SDS011;1289;53.488;10.006;2024-01-30T11:36:28;18.97;;;15.80;;
2558;SDS011;1289;53.488;10.006;2024-01-30T11:38:55;17.33;;;15.30;;
2558;SDS011;1289;53.488;10.006;2024-01-30T11:41:21;16.47;;;14.50;;
2558;SDS011;1289;53.488;10.006;2024-01-30T11:43:51;16.57;;;14.87;;
2558;SDS011;1289;53.488;10.006;2024-01-30T11:46:21;17.60;;;15.70;;
2558;SDS011;1289;53.488;10.006;2024-01-30T11:48:47;16.97;;;15.17;;
2558;SDS011;1289;53.488;10.006;2024-01-30T11:51:14;18.40;;;16.00;;
2558;SDS011;1289;53.488;10.006;2024-01-30T11:53:43;14.47;;;12.93;;
2558;SDS011;1289;53.488;10.006;2024-01-30T11:56:10;15.67;;;14.07;;
2558;SDS011;1289;53.488;10.006;2024-01-30T11:58:42;18.10;;;15.10;;
2558;SDS011;1289;53.488;10.006;2024-01-30T12:01:08;16.87;;;15.07;;
2558;SDS011;1289;53.488;10.006;2024-01-30T12:03:37;16.47;;;14.87;;
2558;SDS011;1289;53.488;10.006;2024-01-30T12:06:03;17.57;;;15.40;;
2558;SDS011;1289;53.488;10.006;2024-01-30T12:08:31;16.97;;;15.37;;
2558;SDS011;1289;53.488;10.006;2024-01-30T12:10:58;17.67;;;15.50;;
2558;SDS011;1289;53.488;10.006;2024-01-30T12:13:26;16.97;;;15.03;;
2558;SDS011;1289;53.488;10.006;2024-01-30T12:15:53;18.87;;;14.50;;
2558;SDS011;1289;53.488;10.006;2024-01-30T12:18:20;15.77;;;13.50;;
2558;SDS011;1289;53.488;10.006;2024-01-30T12:20:57;17.40;;;14.23;;
2558;SDS011;1289;53.488;10.006;2024-01-30T12:23:24;14.70;;;13.13;;
2558;SDS011;1289;53.488;10.006;2024-01-30T12:25:51;14.83;;;12.43;;
2558;SDS011;1289;53.488;10.006;2024-01-30T12:28:18;13.53;;;11.87;;
2558;SDS011;1289;53.488;10.006;2024-01-30T12:30:45;12.90;;;11.47;;
2558;SDS011;1289;53.488;10.006;2024-01-30T12:33:15;12.67;;;11.37;;
2558;SDS011;1289;53.488;10.006;2024-01-30T12:35:45;12.03;;;10.77;;
2558;SDS011;1289;53.488;10.006;2024-01-30T12:38:13;11.77;;;10.67;;
2558;SDS011;1289;53.488;10.006;2024-01-30T12:40:40;14.87;;;11.10;;
2558;SDS011;1289;53.488;10.006;2024-01-30T12:43:06;13.27;;;11.80;;
2558;SDS011;1289;53.488;10.006;2024-01-30T12:45:33;13.63;;;10.93;;
2558;SDS011;1289;53.488;10.006;2024-01-30T12:48:00;16.20;;;12.10;;
2558;SDS011;1289;53.488;10.006;2024-01-30T12:50:26;13.23;;;11.47;;
2558;SDS011;1289;53.488;10.006;2024-01-30T12:52:53;15.30;;;11.73;;
2558;SDS011;1289;53.488;10.006;2024-01-30T12:55:22;11.77;;;10.57;;
2558;SDS011;1289;53.488;10.006;2024-01-30T12:57:48;13.10;;;11.30;;
2558;SDS011;1289;53.488;10.006;2024-01-30T13:00:15;12.83;;;11.33;;
2558;SDS011;1289;53.488;10.006;2024-01-30T13:02:43;13.03;;;11.13;;
2558;SDS011;1289;53.488;10.006;2024-01-30T13:05:10;12.73;;;11.13;;
2558;SDS011;1289;53.488;10.006;2024-01-30T13:07:37;15.90;;;11.20;;
2558;SDS011;1289;53.488;10.006;2024-01-30T13:10:03;13.50;;;10.97;;
2558;SDS011;1289;53.488;10.006;2024-01-30T13:12:32;11.60;;;10.50;;
2558;SDS011;1289;53.488;10.006;2024-01-30T13:14:59;14.40;;;11.47;;
2558;SDS011;1289;53.488;10.006;2024-01-30T13:17:27;13.37;;;11.27;;
2558;SDS011;1289;53.488;10.006;2024-01-30T13:19:53;16.57;;;12.57;;
2558;SDS011;1289;53.488;10.006;2024-01-30T13:22:20;15.87;;;12.80;;
2558;SDS011;1289;53.488;10.006;2024-01-30T13:24:47;12.50;;;11.17;;
2558;SDS011;1289;53.488;10.006;2024-01-30T13:27:15;13.63;;;11.77;;
2558;SDS011;1289;53.488;10.006;2024-01-30T13:29:43;15.77;;;10.60;;
2558;SDS011;1289;53.488;10.006;2024-01-30T13:32:09;21.67;;;11.13;;
2558;SDS011;1289;53.488;10.006;2024-01-30T13:34:36;14.20;;;10.77;;
2558;SDS011;1289;53.488;10.006;2024-01-30T13:37:04;17.10;;;11.20;;
2558;SDS011;1289;53.488;10.006;2024-01-30T13:39:33;13.57;;;11.63;;
2558;SDS011;1289;53.488;10.006;2024-01-30T13:42:00;14.10;;;11.50;;
2558;SDS011;1289;53.488;10.006;2024-01-30T13:44:26;16.07;;;11.43;;
2558;SDS011;1289;53.488;10.006;2024-01-30T13:46:54;12.13;;;10.90;;
2558;SDS011;1289;53.488;10.006;2024-01-30T13:49:21;15.30;;;11.33;;
2558;SDS011;1289;53.488;10.006;2024-01-30T13:51:48;12.97;;;11.60;;
2558;SDS011;1289;53.488;10.006;2024-01-30T13:54:15;12.87;;;11.57;;
2558;SDS011;1289;53.488;10.006;2024-01-30T13:56:41;15.60;;;11.50;;
2558;SDS011;1289;53.488;10.006;2024-01-30T13:59:08;12.40;;;11.17;;
2558;SDS011;1289;53.488;10.006;2024-01-30T14:01:34;13.43;;;12.03;;
2558;SDS011;1289;53.488;10.006;2024-01-30T14:04:03;12.87;;;11.67;;
2558;SDS011;1289;53.488;10.006;2024-01-30T14:06:29;13.87;;;12.47;;
2558;SDS011;1289;53.488;10.006;2024-01-30T14:08:56;15.03;;;11.40;;
2558;SDS011;1289;53.488;10.006;2024-01-30T14:11:23;12.37;;;10.90;;
2558;SDS011;1289;53.488;10.006;2024-01-30T14:13:50;15.10;;;11.50;;
2558;SDS011;1289;53.488;10.006;2024-01-30T14:16:17;17.00;;;12.50;;
2558;SDS011;1289;53.488;10.006;2024-01-30T14:18:44;14.90;;;11.60;;
2558;SDS011;1289;53.488;10.006;2024-01-30T14:21:13;12.60;;;10.90;;
2558;SDS011;1289;53.488;10.006;2024-01-30T14:23:40;15.43;;;11.33;;
2558;SDS011;1289;53.488;10.006;2024-01-30T14:26:06;12.30;;;10.60;;
2558;SDS011;1289;53.488;10.006;2024-01-30T14:28:33;14.20;;;12.27;;
2558;SDS011;1289;53.488;10.006;2024-01-30T14:30:59;12.47;;;10.80;;
2558;SDS011;1289;53.488;10.006;2024-01-30T14:33:26;13.27;;;11.00;;
2558;SDS011;1289;53.488;10.006;2024-01-30T14:35:53;12.97;;;11.67;;